sensor_id;sensor_type;location;lat;lon;timestamp;P1;durP1;ratioP1;P2;durP2;ratioP2
10957;SDS011;5531;42.570;23.676;2023-07-22T00:00:35;7.35;;;5.32;;
10957;SDS011;5531;42.570;23.676;2023-07-22T00:03:04;7.22;;;5.22;;
10957;SDS011;5531;42.570;23.676;2023-07-22T00:05:33;9.98;;;5.03;;
10957;SDS011;5531;42.570;23.676;2023-07-22T00:08:02;9.50;;;5.40;;
10957;SDS011;5531;42.570;23.676;2023-07-22T00:10:32;8.68;;;5.30;;
10957;SDS011;5531;42.570;23.676;2023-07-22T00:13:03;5.55;;;4.93;;
10957;SDS011;5531;42.570;23.676;2023-07-22T00:15:32;8.50;;;5.18;;
10957;SDS011;5531;42.570;23.676;2023-07-22T00:18:01;6.85;;;5.43;;
10957;SDS011;5531;42.570;23.676;2023-07-22T00:20:30;6.15;;;5.00;;
10957;SDS011;5531;42.570;23.676;2023-07-22T00:22:59;7.03;;;5.13;;
10957;SDS011;5531;42.570;23.676;2023-07-22T00:25:28;6.32;;;5.10;;
10957;SDS011;5531;42.570;23.676;2023-07-22T00:27:57;7.45;;;5.30;;
10957;SDS011;5531;42.570;23.676;2023-07-22T00:30:29;8.43;;;5.50;;
10957;SDS011;5531;42.570;23.676;2023-07-22T00:32:58;7.10;;;5.20;;
10957;SDS011;5531;42.570;23.676;2023-07-22T00:35:27;6.82;;;4.88;;
10957;SDS011;5531;42.570;23.676;2023-07-22T00:37:57;8.23;;;5.38;;
10957;SDS011;5531;42.570;23.676;2023-07-22T00:40:26;6.45;;;5.25;;
10957;SDS011;5531;42.570;23.676;2023-07-22T00:42:55;9.75;;;5.55;;
10957;SDS011;5531;42.570;23.676;2023-07-22T00:45:24;6.20;;;5.63;;
10957;SDS011;5531;42.570;23.676;2023-07-22T00:47:56;6.15;;;5.18;;
10957;SDS011;5531;42.570;23.676;2023-07-22T00:50:25;8.23;;;5.60;;
10957;SDS011;5531;42.570;23.676;2023-07-22T00:52:55;8.80;;;5.53;;
10957;SDS011;5531;42.570;23.676;2023-07-22T00:55:23;9.00;;;5.35;;
10957;SDS011;5531;42.570;23.676;2023-07-22T00:57:54;7.88;;;5.60;;
10957;SDS011;5531;42.570;23.676;2023-07-22T01:00:23;8.45;;;5.57;;
10957;SDS011;5531;42.570;23.676;2023-07-22T01:02:53;7.20;;;5.45;;
10957;SDS011;5531;42.570;23.676;2023-07-22T01:05:24;8.32;;;5.53;;
10957;SDS011;5531;42.570;23.676;2023-07-22T01:07:54;8.32;;;6.07;;
10957;SDS011;5531;42.570;23.676;2023-07-22T01:10:24;9.10;;;5.40;;
10957;SDS011;5531;42.570;23.676;2023-07-22T01:12:55;8.55;;;6.07;;
10957;SDS011;5531;42.570;23.676;2023-07-22T01:15:24;8.68;;;5.72;;
10957;SDS011;5531;42.570;23.676;2023-07-22T01:17:56;9.77;;;5.80;;
10957;SDS011;5531;42.570;23.676;2023-07-22T01:20:27;7.63;;;5.50;;
10957;SDS011;5531;42.570;23.676;2023-07-22T01:22:59;9.32;;;5.90;;
10957;SDS011;5531;42.570;23.676;2023-07-22T01:25:29;10.15;;;6.38;;
10957;SDS011;5531;42.570;23.676;2023-07-22T01:27:58;8.13;;;5.57;;
10957;SDS011;5531;42.570;23.676;2023-07-22T01:30:27;7.78;;;6.07;;
10957;SDS011;5531;42.570;23.676;2023-07-22T01:32:56;7.68;;;5.53;;
10957;SDS011;5531;42.570;23.676;2023-07-22T01:35:25;7.13;;;6.00;;
10957;SDS011;5531;42.570;23.676;2023-07-22T01:37:54;7.90;;;5.68;;
10957;SDS011;5531;42.570;23.676;2023-07-22T01:40:26;9.05;;;5.93;;
10957;SDS011;5531;42.570;23.676;2023-07-22T01:42:56;6.85;;;5.75;;
10957;SDS011;5531;42.570;23.676;2023-07-22T01:45:25;7.00;;;6.03;;
10957;SDS011;5531;42.570;23.676;2023-07-22T01:47:54;8.93;;;5.90;;
10957;SDS011;5531;42.570;23.676;2023-07-22T01:50:23;8.38;;;5.78;;
10957;SDS011;5531;42.570;23.676;2023-07-22T01:52:53;7.00;;;5.82;;
10957;SDS011;5531;42.570;23.676;2023-07-22T01:55:21;9.45;;;5.72;;
10957;SDS011;5531;42.570;23.676;2023-07-22T01:57:54;7.88;;;5.85;;
10957;SDS011;5531;42.570;23.676;2023-07-22T02:00:23;9.50;;;6.30;;
10957;SDS011;5531;42.570;23.676;2023-07-22T02:02:52;8.95;;;6.10;;
10957;SDS011;5531;42.570;23.676;2023-07-22T02:05:22;9.05;;;5.95;;
10957;SDS011;5531;42.570;23.676;2023-07-22T02:07:52;9.63;;;6.47;;
10957;SDS011;5531;42.570;23.676;2023-07-22T02:10:21;8.10;;;5.90;;
10957;SDS011;5531;42.570;23.676;2023-07-22T02:12:50;7.13;;;5.55;;
10957;SDS011;5531;42.570;23.676;2023-07-22T02:15:22;7.72;;;6.15;;
10957;SDS011;5531;42.570;23.676;2023-07-22T02:17:51;8.02;;;6.05;;
10957;SDS011;5531;42.570;23.676;2023-07-22T02:20:20;9.50;;;6.13;;
10957;SDS011;5531;42.570;23.676;2023-07-22T02:22:49;8.93;;;6.25;;
10957;SDS011;5531;42.570;23.676;2023-07-22T02:25:18;6.57;;;5.90;;
10957;SDS011;5531;42.570;23.676;2023-07-22T02:27:47;9.05;;;5.65;;
10957;SDS011;5531;42.570;23.676;2023-07-22T02:30:16;6.75;;;5.95;;
10957;SDS011;5531;42.570;23.676;2023-07-22T02:32:48;8.60;;;6.30;;
10957;SDS011;5531;42.570;23.676;2023-07-22T02:35:17;10.15;;;6.25;;
10957;SDS011;5531;42.570;23.676;2023-07-22T02:37:46;12.70;;;6.28;;
10957;SDS011;5531;42.570;23.676;2023-07-22T02:40:15;9.90;;;6.18;;
10957;SDS011;5531;42.570;23.676;2023-07-22T02:42:45;10.77;;;6.38;;
10957;SDS011;5531;42.570;23.676;2023-07-22T02:45:14;8.15;;;6.22;;
10957;SDS011;5531;42.570;23.676;2023-07-22T02:47:42;9.18;;;6.43;;
10957;SDS011;5531;42.570;23.676;2023-07-22T02:50:14;8.20;;;6.15;;
10957;SDS011;5531;42.570;23.676;2023-07-22T02:52:43;9.93;;;7.20;;
10957;SDS011;5531;42.570;23.676;2023-07-22T02:55:14;7.72;;;6.72;;
10957;SDS011;5531;42.570;23.676;2023-07-22T02:57:44;7.70;;;6.53;;
10957;SDS011;5531;42.570;23.676;2023-07-22T03:00:15;7.30;;;6.60;;
10957;SDS011;5531;42.570;23.676;2023-07-22T03:02:48;9.45;;;6.60;;
10957;SDS011;5531;42.570;23.676;2023-07-22T03:05:21;8.52;;;6.20;;
10957;SDS011;5531;42.570;23.676;2023-07-22T03:07:51;8.27;;;6.25;;
10957;SDS011;5531;42.570;23.676;2023-07-22T03:10:20;7.15;;;6.20;;
10957;SDS011;5531;42.570;23.676;2023-07-22T03:12:50;8.02;;;6.43;;
10957;SDS011;5531;42.570;23.676;2023-07-22T03:15:21;8.55;;;6.22;;
10957;SDS011;5531;42.570;23.676;2023-07-22T03:17:51;8.20;;;6.68;;
10957;SDS011;5531;42.570;23.676;2023-07-22T03:20:23;9.05;;;6.55;;
10957;SDS011;5531;42.570;23.676;2023-07-22T03:22:52;7.93;;;6.80;;
10957;SDS011;5531;42.570;23.676;2023-07-22T03:25:21;9.50;;;7.20;;
10957;SDS011;5531;42.570;23.676;2023-07-22T03:27:51;9.93;;;7.32;;
10957;SDS011;5531;42.570;23.676;2023-07-22T03:30:21;8.77;;;7.55;;
10957;SDS011;5531;42.570;23.676;2023-07-22T03:32:51;11.60;;;7.93;;
10957;SDS011;5531;42.570;23.676;2023-07-22T03:35:23;9.65;;;8.73;;
10957;SDS011;5531;42.570;23.676;2023-07-22T03:37:52;11.52;;;8.82;;
10957;SDS011;5531;42.570;23.676;2023-07-22T03:40:21;10.50;;;8.48;;
10957;SDS011;5531;42.570;23.676;2023-07-22T03:42:52;13.18;;;8.60;;
10957;SDS011;5531;42.570;23.676;2023-07-22T03:45:23;13.13;;;7.25;;
10957;SDS011;5531;42.570;23.676;2023-07-22T03:47:55;11.55;;;7.25;;
10957;SDS011;5531;42.570;23.676;2023-07-22T03:50:28;12.55;;;7.47;;
10957;SDS011;5531;42.570;23.676;2023-07-22T03:52:57;8.38;;;7.40;;
10957;SDS011;5531;42.570;23.676;2023-07-22T03:55:26;8.93;;;7.35;;
10957;SDS011;5531;42.570;23.676;2023-07-22T03:57:55;11.10;;;7.25;;
10957;SDS011;5531;42.570;23.676;2023-07-22T04:00:24;8.85;;;6.38;;
10957;SDS011;5531;42.570;23.676;2023-07-22T04:02:53;9.93;;;6.40;;
10957;SDS011;5531;42.570;23.676;2023-07-22T04:05:22;8.90;;;6.55;;
10957;SDS011;5531;42.570;23.676;2023-07-22T04:07:54;7.38;;;6.68;;
10957;SDS011;5531;42.570;23.676;2023-07-22T04:10:23;8.02;;;6.43;;
10957;SDS011;5531;42.570;23.676;2023-07-22T04:12:52;8.18;;;7.03;;
10957;SDS011;5531;42.570;23.676;2023-07-22T04:15:21;8.75;;;6.32;;
10957;SDS011;5531;42.570;23.676;2023-07-22T04:17:50;8.05;;;6.43;;
10957;SDS011;5531;42.570;23.676;2023-07-22T04:20:19;9.90;;;6.85;;
10957;SDS011;5531;42.570;23.676;2023-07-22T04:22:49;9.50;;;6.78;;
10957;SDS011;5531;42.570;23.676;2023-07-22T04:25:21;9.93;;;7.30;;
10957;SDS011;5531;42.570;23.676;2023-07-22T04:27:50;8.82;;;6.95;;
10957;SDS011;5531;42.570;23.676;2023-07-22T04:30:19;9.52;;;6.78;;
10957;SDS011;5531;42.570;23.676;2023-07-22T04:32:49;9.23;;;7.00;;
10957;SDS011;5531;42.570;23.676;2023-07-22T04:35:18;9.48;;;6.95;;
10957;SDS011;5531;42.570;23.676;2023-07-22T04:37:47;8.38;;;7.05;;
10957;SDS011;5531;42.570;23.676;2023-07-22T04:40:16;9.55;;;6.65;;
10957;SDS011;5531;42.570;23.676;2023-07-22T04:42:48;7.40;;;6.65;;
10957;SDS011;5531;42.570;23.676;2023-07-22T04:45:17;10.00;;;6.57;;
10957;SDS011;5531;42.570;23.676;2023-07-22T04:47:47;9.82;;;6.75;;
10957;SDS011;5531;42.570;23.676;2023-07-22T04:50:16;8.40;;;6.07;;
10957;SDS011;5531;42.570;23.676;2023-07-22T04:52:46;7.78;;;6.63;;
10957;SDS011;5531;42.570;23.676;2023-07-22T04:55:16;6.93;;;5.97;;
10957;SDS011;5531;42.570;23.676;2023-07-22T04:57:48;7.80;;;7.00;;
10957;SDS011;5531;42.570;23.676;2023-07-22T05:00:17;8.40;;;6.65;;
10957;SDS011;5531;42.570;23.676;2023-07-22T05:02:47;8.07;;;6.10;;
10957;SDS011;5531;42.570;23.676;2023-07-22T05:05:18;8.75;;;6.93;;
10957;SDS011;5531;42.570;23.676;2023-07-22T05:07:47;12.35;;;7.30;;
10957;SDS011;5531;42.570;23.676;2023-07-22T05:10:18;9.00;;;6.85;;
10957;SDS011;5531;42.570;23.676;2023-07-22T05:12:50;8.10;;;6.72;;
10957;SDS011;5531;42.570;23.676;2023-07-22T05:15:19;8.73;;;6.40;;
10957;SDS011;5531;42.570;23.676;2023-07-22T05:17:48;10.10;;;6.93;;
10957;SDS011;5531;42.570;23.676;2023-07-22T05:20:17;8.98;;;6.55;;
10957;SDS011;5531;42.570;23.676;2023-07-22T05:22:48;7.60;;;6.47;;
10957;SDS011;5531;42.570;23.676;2023-07-22T05:25:17;11.15;;;6.60;;
10957;SDS011;5531;42.570;23.676;2023-07-22T05:27:46;7.35;;;6.22;;
10957;SDS011;5531;42.570;23.676;2023-07-22T05:30:18;12.77;;;6.88;;
10957;SDS011;5531;42.570;23.676;2023-07-22T05:32:47;9.38;;;6.63;;
10957;SDS011;5531;42.570;23.676;2023-07-22T05:35:19;7.30;;;6.47;;
10957;SDS011;5531;42.570;23.676;2023-07-22T05:37:49;10.05;;;6.22;;
10957;SDS011;5531;42.570;23.676;2023-07-22T05:40:18;7.95;;;6.45;;
10957;SDS011;5531;42.570;23.676;2023-07-22T05:42:47;10.60;;;6.63;;
10957;SDS011;5531;42.570;23.676;2023-07-22T05:45:19;7.07;;;6.35;;
10957;SDS011;5531;42.570;23.676;2023-07-22T05:47:48;8.90;;;6.38;;
10957;SDS011;5531;42.570;23.676;2023-07-22T05:50:17;8.45;;;6.57;;
10957;SDS011;5531;42.570;23.676;2023-07-22T05:52:46;6.57;;;5.88;;
10957;SDS011;5531;42.570;23.676;2023-07-22T05:55:16;10.45;;;6.70;;
10957;SDS011;5531;42.570;23.676;2023-07-22T05:57:45;9.77;;;6.88;;
10957;SDS011;5531;42.570;23.676;2023-07-22T06:00:15;9.55;;;6.32;;
10957;SDS011;5531;42.570;23.676;2023-07-22T06:02:47;10.80;;;6.32;;
10957;SDS011;5531;42.570;23.676;2023-07-22T06:05:16;8.40;;;6.10;;
10957;SDS011;5531;42.570;23.676;2023-07-22T06:07:45;8.18;;;6.25;;
10957;SDS011;5531;42.570;23.676;2023-07-22T06:10:15;9.02;;;6.63;;
10957;SDS011;5531;42.570;23.676;2023-07-22T06:12:44;7.60;;;6.03;;
10957;SDS011;5531;42.570;23.676;2023-07-22T06:15:13;7.80;;;6.32;;
10957;SDS011;5531;42.570;23.676;2023-07-22T06:17:42;9.88;;;6.28;;
10957;SDS011;5531;42.570;23.676;2023-07-22T06:20:14;7.80;;;6.50;;
10957;SDS011;5531;42.570;23.676;2023-07-22T06:22:43;12.40;;;6.32;;
10957;SDS011;5531;42.570;23.676;2023-07-22T06:25:12;8.35;;;6.10;;
10957;SDS011;5531;42.570;23.676;2023-07-22T06:27:41;7.70;;;6.22;;
10957;SDS011;5531;42.570;23.676;2023-07-22T06:30:11;9.48;;;6.43;;
10957;SDS011;5531;42.570;23.676;2023-07-22T06:32:40;10.50;;;6.10;;
10957;SDS011;5531;42.570;23.676;2023-07-22T06:35:09;8.40;;;6.30;;
10957;SDS011;5531;42.570;23.676;2023-07-22T06:37:41;9.65;;;6.60;;
10957;SDS011;5531;42.570;23.676;2023-07-22T06:40:10;8.55;;;6.30;;
10957;SDS011;5531;42.570;23.676;2023-07-22T06:42:39;10.93;;;6.13;;
10957;SDS011;5531;42.570;23.676;2023-07-22T06:45:08;9.93;;;6.20;;
10957;SDS011;5531;42.570;23.676;2023-07-22T06:47:38;7.40;;;6.15;;
10957;SDS011;5531;42.570;23.676;2023-07-22T06:50:07;7.47;;;6.18;;
10957;SDS011;5531;42.570;23.676;2023-07-22T06:52:36;10.35;;;6.13;;
10957;SDS011;5531;42.570;23.676;2023-07-22T06:55:08;9.52;;;6.07;;
10957;SDS011;5531;42.570;23.676;2023-07-22T06:57:37;35.83;;;21.73;;
10957;SDS011;5531;42.570;23.676;2023-07-22T07:00:07;9.45;;;6.97;;
10957;SDS011;5531;42.570;23.676;2023-07-22T07:02:37;13.48;;;9.32;;
10957;SDS011;5531;42.570;23.676;2023-07-22T07:05:06;8.18;;;6.18;;
10957;SDS011;5531;42.570;23.676;2023-07-22T07:07:36;12.52;;;7.00;;
10957;SDS011;5531;42.570;23.676;2023-07-22T07:10:09;8.82;;;7.00;;
10957;SDS011;5531;42.570;23.676;2023-07-22T07:12:38;9.88;;;6.10;;
10957;SDS011;5531;42.570;23.676;2023-07-22T07:15:08;7.47;;;6.13;;
10957;SDS011;5531;42.570;23.676;2023-07-22T07:17:37;7.45;;;6.50;;
10957;SDS011;5531;42.570;23.676;2023-07-22T07:20:07;11.77;;;6.35;;
10957;SDS011;5531;42.570;23.676;2023-07-22T07:22:37;8.98;;;6.47;;
10957;SDS011;5531;42.570;23.676;2023-07-22T07:25:09;7.05;;;6.35;;
10957;SDS011;5531;42.570;23.676;2023-07-22T07:27:40;9.93;;;6.40;;
10957;SDS011;5531;42.570;23.676;2023-07-22T07:30:10;9.10;;;5.88;;
10957;SDS011;5531;42.570;23.676;2023-07-22T07:32:39;8.98;;;5.95;;
10957;SDS011;5531;42.570;23.676;2023-07-22T07:35:08;7.90;;;5.90;;
10957;SDS011;5531;42.570;23.676;2023-07-22T07:37:37;7.97;;;6.30;;
10957;SDS011;5531;42.570;23.676;2023-07-22T07:40:10;9.30;;;6.57;;
10957;SDS011;5531;42.570;23.676;2023-07-22T07:42:40;11.15;;;6.20;;
10957;SDS011;5531;42.570;23.676;2023-07-22T07:45:09;8.07;;;6.03;;
10957;SDS011;5531;42.570;23.676;2023-07-22T07:47:38;10.85;;;6.80;;
10957;SDS011;5531;42.570;23.676;2023-07-22T07:50:08;12.05;;;6.43;;
10957;SDS011;5531;42.570;23.676;2023-07-22T07:52:37;9.43;;;6.30;;
10957;SDS011;5531;42.570;23.676;2023-07-22T07:55:09;11.65;;;7.10;;
10957;SDS011;5531;42.570;23.676;2023-07-22T07:57:38;8.80;;;6.57;;
10957;SDS011;5531;42.570;23.676;2023-07-22T08:00:08;9.55;;;6.43;;
10957;SDS011;5531;42.570;23.676;2023-07-22T08:02:37;7.75;;;6.10;;
10957;SDS011;5531;42.570;23.676;2023-07-22T08:05:07;9.05;;;6.00;;
10957;SDS011;5531;42.570;23.676;2023-07-22T08:07:37;7.88;;;6.38;;
10957;SDS011;5531;42.570;23.676;2023-07-22T08:10:09;18.10;;;6.13;;
10957;SDS011;5531;42.570;23.676;2023-07-22T08:12:39;8.88;;;6.35;;
10957;SDS011;5531;42.570;23.676;2023-07-22T08:15:08;8.02;;;5.90;;
10957;SDS011;5531;42.570;23.676;2023-07-22T08:17:37;8.70;;;5.85;;
10957;SDS011;5531;42.570;23.676;2023-07-22T08:20:07;8.35;;;6.20;;
10957;SDS011;5531;42.570;23.676;2023-07-22T08:22:36;9.48;;;6.40;;
10957;SDS011;5531;42.570;23.676;2023-07-22T08:25:06;10.80;;;6.07;;
10957;SDS011;5531;42.570;23.676;2023-07-22T08:27:38;8.43;;;6.00;;
10957;SDS011;5531;42.570;23.676;2023-07-22T08:30:07;10.93;;;6.35;;
10957;SDS011;5531;42.570;23.676;2023-07-22T08:32:37;12.05;;;6.32;;
10957;SDS011;5531;42.570;23.676;2023-07-22T08:35:06;8.02;;;6.30;;
10957;SDS011;5531;42.570;23.676;2023-07-22T08:37:36;9.98;;;6.03;;
10957;SDS011;5531;42.570;23.676;2023-07-22T08:40:06;12.63;;;6.40;;
10957;SDS011;5531;42.570;23.676;2023-07-22T08:42:38;11.73;;;6.05;;
10957;SDS011;5531;42.570;23.676;2023-07-22T08:45:09;8.73;;;6.22;;
10957;SDS011;5531;42.570;23.676;2023-07-22T08:47:39;9.10;;;6.45;;
10957;SDS011;5531;42.570;23.676;2023-07-22T08:50:14;19.63;;;10.48;;
10957;SDS011;5531;42.570;23.676;2023-07-22T08:52:48;10.45;;;6.22;;
10957;SDS011;5531;42.570;23.676;2023-07-22T08:55:20;9.65;;;6.18;;
10957;SDS011;5531;42.570;23.676;2023-07-22T08:57:49;9.27;;;5.90;;
10957;SDS011;5531;42.570;23.676;2023-07-22T09:00:20;8.55;;;6.30;;
10957;SDS011;5531;42.570;23.676;2023-07-22T09:02:49;15.13;;;6.40;;
10957;SDS011;5531;42.570;23.676;2023-07-22T09:05:19;9.68;;;6.35;;
10957;SDS011;5531;42.570;23.676;2023-07-22T09:07:49;9.20;;;6.63;;
10957;SDS011;5531;42.570;23.676;2023-07-22T09:10:22;9.80;;;6.28;;
10957;SDS011;5531;42.570;23.676;2023-07-22T09:12:52;10.55;;;6.38;;
10957;SDS011;5531;42.570;23.676;2023-07-22T09:15:22;10.80;;;6.28;;
10957;SDS011;5531;42.570;23.676;2023-07-22T09:17:52;11.60;;;6.75;;
10957;SDS011;5531;42.570;23.676;2023-07-22T09:20:21;9.82;;;6.32;;
10957;SDS011;5531;42.570;23.676;2023-07-22T09:22:53;10.38;;;6.32;;
10957;SDS011;5531;42.570;23.676;2023-07-22T09:25:26;12.68;;;6.38;;
10957;SDS011;5531;42.570;23.676;2023-07-22T09:27:58;13.23;;;6.70;;
10957;SDS011;5531;42.570;23.676;2023-07-22T09:30:28;13.38;;;6.47;;
10957;SDS011;5531;42.570;23.676;2023-07-22T09:33:00;11.23;;;7.10;;
10957;SDS011;5531;42.570;23.676;2023-07-22T09:35:31;9.80;;;5.95;;
10957;SDS011;5531;42.570;23.676;2023-07-22T09:38:13;10.20;;;5.90;;
10957;SDS011;5531;42.570;23.676;2023-07-22T09:40:45;11.05;;;6.38;;
10957;SDS011;5531;42.570;23.676;2023-07-22T09:43:14;13.68;;;6.93;;
10957;SDS011;5531;42.570;23.676;2023-07-22T09:45:46;11.60;;;6.28;;
10957;SDS011;5531;42.570;23.676;2023-07-22T09:48:16;13.90;;;6.40;;
10957;SDS011;5531;42.570;23.676;2023-07-22T09:50:45;13.55;;;6.53;;
10957;SDS011;5531;42.570;23.676;2023-07-22T09:53:15;12.65;;;6.45;;
10957;SDS011;5531;42.570;23.676;2023-07-22T09:55:47;10.80;;;5.80;;
10957;SDS011;5531;42.570;23.676;2023-07-22T09:58:16;12.25;;;5.82;;
10957;SDS011;5531;42.570;23.676;2023-07-22T10:00:47;10.32;;;6.07;;
10957;SDS011;5531;42.570;23.676;2023-07-22T10:03:18;12.48;;;6.55;;
10957;SDS011;5531;42.570;23.676;2023-07-22T10:05:50;14.15;;;6.00;;
10957;SDS011;5531;42.570;23.676;2023-07-22T10:08:19;11.48;;;5.85;;
10957;SDS011;5531;42.570;23.676;2023-07-22T10:10:55;12.90;;;6.55;;
10957;SDS011;5531;42.570;23.676;2023-07-22T10:13:26;12.75;;;6.47;;
10957;SDS011;5531;42.570;23.676;2023-07-22T10:15:55;14.15;;;6.20;;
10957;SDS011;5531;42.570;23.676;2023-07-22T10:18:25;9.77;;;5.95;;
10957;SDS011;5531;42.570;23.676;2023-07-22T10:20:55;13.15;;;6.35;;
10957;SDS011;5531;42.570;23.676;2023-07-22T10:23:25;13.07;;;6.50;;
10957;SDS011;5531;42.570;23.676;2023-07-22T10:25:58;18.48;;;6.53;;
10957;SDS011;5531;42.570;23.676;2023-07-22T10:28:28;15.95;;;5.63;;
10957;SDS011;5531;42.570;23.676;2023-07-22T10:30:58;16.63;;;6.50;;
10957;SDS011;5531;42.570;23.676;2023-07-22T10:33:28;14.55;;;5.88;;
10957;SDS011;5531;42.570;23.676;2023-07-22T10:36:05;20.35;;;6.10;;
10957;SDS011;5531;42.570;23.676;2023-07-22T10:38:35;13.15;;;6.50;;
10957;SDS011;5531;42.570;23.676;2023-07-22T10:41:14;9.25;;;6.00;;
10957;SDS011;5531;42.570;23.676;2023-07-22T10:43:53;12.32;;;6.30;;
10957;SDS011;5531;42.570;23.676;2023-07-22T10:46:32;11.98;;;6.07;;
10957;SDS011;5531;42.570;23.676;2023-07-22T10:49:11;9.27;;;6.22;;
10957;SDS011;5531;42.570;23.676;2023-07-22T10:51:41;13.77;;;6.03;;
10957;SDS011;5531;42.570;23.676;2023-07-22T10:54:30;13.40;;;5.72;;
10957;SDS011;5531;42.570;23.676;2023-07-22T10:57:21;11.60;;;5.90;;
10957;SDS011;5531;42.570;23.676;2023-07-22T10:59:53;16.13;;;6.32;;
10957;SDS011;5531;42.570;23.676;2023-07-22T11:02:24;14.85;;;6.30;;
10957;SDS011;5531;42.570;23.676;2023-07-22T11:04:56;12.68;;;6.28;;
10957;SDS011;5531;42.570;23.676;2023-07-22T11:07:29;13.40;;;6.25;;
10957;SDS011;5531;42.570;23.676;2023-07-22T11:10:11;10.48;;;5.70;;
10957;SDS011;5531;42.570;23.676;2023-07-22T11:12:45;11.52;;;5.88;;
10957;SDS011;5531;42.570;23.676;2023-07-22T11:15:16;9.50;;;6.07;;
10957;SDS011;5531;42.570;23.676;2023-07-22T11:17:48;14.95;;;5.97;;
10957;SDS011;5531;42.570;23.676;2023-07-22T11:20:17;14.05;;;6.38;;
10957;SDS011;5531;42.570;23.676;2023-07-22T11:22:46;14.20;;;6.60;;
10957;SDS011;5531;42.570;23.676;2023-07-22T11:25:18;13.50;;;6.60;;
10957;SDS011;5531;42.570;23.676;2023-07-22T11:27:50;13.10;;;6.78;;
10957;SDS011;5531;42.570;23.676;2023-07-22T11:30:19;13.52;;;6.47;;
10957;SDS011;5531;42.570;23.676;2023-07-22T11:32:51;12.30;;;6.45;;
10957;SDS011;5531;42.570;23.676;2023-07-22T11:35:20;15.45;;;7.10;;
10957;SDS011;5531;42.570;23.676;2023-07-22T11:37:49;12.93;;;6.78;;
10957;SDS011;5531;42.570;23.676;2023-07-22T11:40:32;15.23;;;6.95;;
10957;SDS011;5531;42.570;23.676;2023-07-22T11:43:04;10.50;;;6.32;;
10957;SDS011;5531;42.570;23.676;2023-07-22T11:45:34;17.33;;;7.00;;
10957;SDS011;5531;42.570;23.676;2023-07-22T11:48:08;14.85;;;6.50;;
10957;SDS011;5531;42.570;23.676;2023-07-22T11:50:39;14.23;;;6.40;;
10957;SDS011;5531;42.570;23.676;2023-07-22T11:53:08;15.82;;;6.85;;
10957;SDS011;5531;42.570;23.676;2023-07-22T11:55:37;17.40;;;6.72;;
10957;SDS011;5531;42.570;23.676;2023-07-22T11:58:09;14.73;;;6.45;;
10957;SDS011;5531;42.570;23.676;2023-07-22T12:00:42;15.43;;;6.60;;
10957;SDS011;5531;42.570;23.676;2023-07-22T12:03:11;14.60;;;6.88;;
10957;SDS011;5531;42.570;23.676;2023-07-22T12:05:43;19.75;;;7.15;;
10957;SDS011;5531;42.570;23.676;2023-07-22T12:08:14;13.98;;;6.38;;
10957;SDS011;5531;42.570;23.676;2023-07-22T12:10:43;14.32;;;6.13;;
10957;SDS011;5531;42.570;23.676;2023-07-22T12:13:15;11.35;;;6.45;;
10957;SDS011;5531;42.570;23.676;2023-07-22T12:15:44;15.38;;;6.53;;
10957;SDS011;5531;42.570;23.676;2023-07-22T12:18:28;17.33;;;6.60;;
10957;SDS011;5531;42.570;23.676;2023-07-22T12:21:10;16.35;;;6.50;;
10957;SDS011;5531;42.570;23.676;2023-07-22T12:23:40;16.85;;;6.65;;
10957;SDS011;5531;42.570;23.676;2023-07-22T12:26:10;20.05;;;7.38;;
10957;SDS011;5531;42.570;23.676;2023-07-22T12:28:42;20.00;;;6.82;;
10957;SDS011;5531;42.570;23.676;2023-07-22T12:31:11;17.92;;;6.10;;
10957;SDS011;5531;42.570;23.676;2023-07-22T12:33:40;19.08;;;6.50;;
10957;SDS011;5531;42.570;23.676;2023-07-22T12:36:09;16.75;;;6.70;;
10957;SDS011;5531;42.570;23.676;2023-07-22T12:38:38;19.75;;;6.60;;
10957;SDS011;5531;42.570;23.676;2023-07-22T12:41:08;19.95;;;6.43;;
10957;SDS011;5531;42.570;23.676;2023-07-22T12:43:37;14.45;;;5.88;;
10957;SDS011;5531;42.570;23.676;2023-07-22T12:46:08;18.23;;;6.07;;
10957;SDS011;5531;42.570;23.676;2023-07-22T12:48:37;19.02;;;6.43;;
10957;SDS011;5531;42.570;23.676;2023-07-22T12:51:06;18.02;;;5.97;;
10957;SDS011;5531;42.570;23.676;2023-07-22T12:53:36;14.55;;;5.88;;
10957;SDS011;5531;42.570;23.676;2023-07-22T12:56:05;19.00;;;6.22;;
10957;SDS011;5531;42.570;23.676;2023-07-22T12:58:34;17.67;;;5.70;;
10957;SDS011;5531;42.570;23.676;2023-07-22T13:01:03;18.58;;;5.78;;
10957;SDS011;5531;42.570;23.676;2023-07-22T13:03:35;17.23;;;6.22;;
10957;SDS011;5531;42.570;23.676;2023-07-22T13:06:04;15.60;;;5.85;;
10957;SDS011;5531;42.570;23.676;2023-07-22T13:08:33;16.92;;;5.70;;
10957;SDS011;5531;42.570;23.676;2023-07-22T13:11:02;18.17;;;5.75;;
10957;SDS011;5531;42.570;23.676;2023-07-22T13:13:32;23.77;;;6.43;;
10957;SDS011;5531;42.570;23.676;2023-07-22T13:16:01;18.02;;;5.88;;
10957;SDS011;5531;42.570;23.676;2023-07-22T13:18:30;20.48;;;6.10;;
10957;SDS011;5531;42.570;23.676;2023-07-22T13:21:02;20.17;;;6.40;;
10957;SDS011;5531;42.570;23.676;2023-07-22T13:23:31;18.15;;;5.93;;
10957;SDS011;5531;42.570;23.676;2023-07-22T13:26:00;18.73;;;5.90;;
10957;SDS011;5531;42.570;23.676;2023-07-22T13:28:29;20.25;;;6.68;;
10957;SDS011;5531;42.570;23.676;2023-07-22T13:30:58;20.27;;;6.25;;
10957;SDS011;5531;42.570;23.676;2023-07-22T13:33:27;20.08;;;5.78;;
10957;SDS011;5531;42.570;23.676;2023-07-22T13:35:56;19.67;;;5.38;;
10957;SDS011;5531;42.570;23.676;2023-07-22T13:38:28;20.40;;;5.75;;
10957;SDS011;5531;42.570;23.676;2023-07-22T13:40:57;17.92;;;5.80;;
10957;SDS011;5531;42.570;23.676;2023-07-22T13:43:26;18.92;;;6.03;;
10957;SDS011;5531;42.570;23.676;2023-07-22T13:45:56;18.33;;;5.78;;
10957;SDS011;5531;42.570;23.676;2023-07-22T13:48:25;20.92;;;6.07;;
10957;SDS011;5531;42.570;23.676;2023-07-22T13:50:54;21.10;;;6.05;;
10957;SDS011;5531;42.570;23.676;2023-07-22T13:53:23;18.88;;;5.78;;
10957;SDS011;5531;42.570;23.676;2023-07-22T13:55:55;17.83;;;5.78;;
10957;SDS011;5531;42.570;23.676;2023-07-22T13:58:24;16.92;;;5.68;;
10957;SDS011;5531;42.570;23.676;2023-07-22T14:00:53;23.75;;;6.70;;
10957;SDS011;5531;42.570;23.676;2023-07-22T14:03:22;14.45;;;5.57;;
10957;SDS011;5531;42.570;23.676;2023-07-22T14:05:51;19.23;;;5.93;;
10957;SDS011;5531;42.570;23.676;2023-07-22T14:08:20;19.25;;;6.07;;
10957;SDS011;5531;42.570;23.676;2023-07-22T14:10:49;14.20;;;5.47;;
10957;SDS011;5531;42.570;23.676;2023-07-22T14:13:21;18.15;;;6.18;;
10957;SDS011;5531;42.570;23.676;2023-07-22T14:15:50;16.70;;;6.30;;
10957;SDS011;5531;42.570;23.676;2023-07-22T14:18:19;19.13;;;6.20;;
10957;SDS011;5531;42.570;23.676;2023-07-22T14:20:48;20.23;;;6.22;;
10957;SDS011;5531;42.570;23.676;2023-07-22T14:23:17;15.25;;;5.75;;
10957;SDS011;5531;42.570;23.676;2023-07-22T14:25:47;14.05;;;5.80;;
10957;SDS011;5531;42.570;23.676;2023-07-22T14:28:16;17.38;;;6.00;;
10957;SDS011;5531;42.570;23.676;2023-07-22T14:30:48;19.05;;;6.05;;
10957;SDS011;5531;42.570;23.676;2023-07-22T14:33:17;18.45;;;6.25;;
10957;SDS011;5531;42.570;23.676;2023-07-22T14:35:46;16.50;;;6.00;;
10957;SDS011;5531;42.570;23.676;2023-07-22T14:38:15;19.67;;;5.90;;
10957;SDS011;5531;42.570;23.676;2023-07-22T14:40:44;20.00;;;5.70;;
10957;SDS011;5531;42.570;23.676;2023-07-22T14:43:14;19.38;;;6.63;;
10957;SDS011;5531;42.570;23.676;2023-07-22T14:45:43;18.95;;;5.80;;
10957;SDS011;5531;42.570;23.676;2023-07-22T14:48:15;18.23;;;6.25;;
10957;SDS011;5531;42.570;23.676;2023-07-22T14:50:44;15.27;;;5.60;;
10957;SDS011;5531;42.570;23.676;2023-07-22T14:53:13;19.67;;;5.90;;
10957;SDS011;5531;42.570;23.676;2023-07-22T14:55:42;18.27;;;6.13;;
10957;SDS011;5531;42.570;23.676;2023-07-22T14:58:11;19.20;;;5.80;;